Temp: 17.3°C   Baro: 1010.1mb
  Wind: 9.0mph   Dir: WNW (290°)
  Rain: 0.8mm (0.0mm/hr)
  Solar: 142W/m2  Hum: 91%
 
Bath Spa Weather Station Historical Data
Daily Summary for November 22, 2019 Units:  Metric    English   Both
Daily Weekly Monthly Yearly Custom
  High: Low: Average:
Temperature: 8.9 °C -17.8 °C 7.3 °C
Dew Point: 7.9 °C -17.8 °C 6.2 °C
Humidity: 95% % 92%
Wind Speed: 16.1km/h 0km/h 5.8km/h
Wind Gust: 33.8km/h - -
Wind- - ESE
Pressure: 994.5 hPa 0 hPa -
Precipitation: 14.99 mm    
Historical Graphs
 
 
Tabular Data for November 22, 2019
Time Temperature Dew Point Pressure Wind Wind Speed Wind Gust Humidity Rainfall Rate (Hourly) solar
00:04 7.1 °C 6.2 °C 994.5 hPa SE 4.8 km/h 11.3 km/h 94% 0 mm 0 W/m2
00:09 7.2 °C 6.3 °C 994.5 hPa ESE 5.3 km/h 14.5 km/h 94% 0 mm 0 W/m2
00:14 7.2 °C 6.3 °C 994.5 hPa ESE 6.8 km/h 12.9 km/h 94% 0.25 mm 0 W/m2
00:19 7.3 °C 6.4 °C 994.5 hPa ESE 5.5 km/h 12.9 km/h 94% 0.25 mm 0 W/m2
00:24 7.3 °C 6.4 °C 994.5 hPa ESE 4.3 km/h 12.9 km/h 94% 0.25 mm 0 W/m2
00:29 7.3 °C 6.4 °C 994.1 hPa ESE 6.4 km/h 12.9 km/h 94% 0.25 mm 0 W/m2
00:34 7.3 °C 6.4 °C 994.1 hPa ESE 5.3 km/h 11.3 km/h 94% 0.25 mm 0 W/m2
00:39 7.3 °C 6.4 °C 994.1 hPa ESE 5.1 km/h 11.3 km/h 94% 0.25 mm 0 W/m2
00:44 7.3 °C 6.4 °C 994.1 hPa ESE 4.2 km/h 12.9 km/h 94% 0.25 mm 0 W/m2
00:49 7.3 °C 6.4 °C 994.1 hPa ESE 4.5 km/h 12.9 km/h 94% 0.25 mm 0 W/m2
00:54 7.3 °C 6.4 °C 994.1 hPa ESE 2.1 km/h 6.4 km/h 94% 0.25 mm 0 W/m2
00:59 7.3 °C 6.4 °C 994.1 hPa East 1.3 km/h 4.8 km/h 94% 0.25 mm 0 W/m2
01:04 7.3 °C 6.4 °C 994.1 hPa East 1 km/h 4.8 km/h 94% 0.25 mm 0 W/m2
01:09 7.4 °C 6.5 °C 994.1 hPa East 0.2 km/h 4.8 km/h 94% 0.51 mm 0 W/m2
01:14 7.4 °C 6.5 °C 994.1 hPa SE 2.3 km/h 6.4 km/h 94% 0.51 mm 0 W/m2
01:19 7.4 °C 6.5 °C 994.5 hPa SSW 4.8 km/h 8 km/h 94% 0.25 mm 0 W/m2
01:24 7.4 °C 6.5 °C 994.1 hPa SSW 2.1 km/h 8 km/h 94% 0.25 mm 0 W/m2
01:29 7.4 °C 6.5 °C 994.1 hPa SSE 2.9 km/h 11.3 km/h 94% 0.51 mm 0 W/m2
01:34 7.4 °C 6.5 °C 994.1 hPa SE 2.3 km/h 8 km/h 94% 0.76 mm 0 W/m2
01:39 7.4 °C 6.5 °C 994.1 hPa SE 3.5 km/h 8 km/h 94% 0.76 mm 0 W/m2
01:44 7.4 °C 6.5 °C 994.1 hPa SE 1.6 km/h 8 km/h 94% 1.02 mm 0 W/m2
01:49 7.4 °C 6.5 °C 994.1 hPa SE 2.7 km/h 4.8 km/h 94% 1.02 mm 0 W/m2
01:54 7.4 °C 6.5 °C 994.1 hPa ESE 1.6 km/h 8 km/h 94% 1.02 mm 0 W/m2
01:59 7.4 °C 6.5 °C 994.1 hPa East 1.6 km/h 6.4 km/h 94% 1.02 mm 0 W/m2
02:04 7.4 °C 6.5 °C 994.1 hPa ESE 3.2 km/h 11.3 km/h 94% 1.02 mm 0 W/m2
02:09 7.4 °C 6.5 °C 994.1 hPa SE 2.7 km/h 11.3 km/h 94% 1.02 mm 0 W/m2
02:14 7.3 °C 6.4 °C 994.1 hPa SE 2.3 km/h 6.4 km/h 94% 0.76 mm 0 W/m2
02:19 7.3 °C 6.4 °C 993.8 hPa SE 1.8 km/h 6.4 km/h 94% 0.76 mm 0 W/m2
02:24 7.3 °C 6.4 °C 993.8 hPa ESE 2.6 km/h 8 km/h 94% 0.76 mm 0 W/m2
02:29 7.3 °C 6.4 °C 993.8 hPa ESE 3.5 km/h 11.3 km/h 94% 0.76 mm 0 W/m2
02:34 7.2 °C 6.3 °C 993.8 hPa ESE 2.1 km/h 8 km/h 94% 0.51 mm 0 W/m2
02:39 7.2 °C 6.3 °C 993.8 hPa ESE 1.9 km/h 8 km/h 94% 0.25 mm 0 W/m2
02:44 7.2 °C 6.2 °C 993.8 hPa ESE 0.3 km/h 8 km/h 94% 0.25 mm 0 W/m2
02:49 7.1 °C 6.2 °C 993.5 hPa ESE 0.3 km/h 3.2 km/h 94% 0 mm 0 W/m2
02:54 6.9 °C 6.1 °C 993.5 hPa Calm   1.6 km/h 94% 0 mm 0 W/m2
02:59 6.8 °C 5.9 °C 993.5 hPa ESE 0.3 km/h 4.8 km/h 94% 0 mm 0 W/m2
03:04 6.7 °C 5.8 °C 993.5 hPa ESE 0.2 km/h 3.2 km/h 94% 0 mm 0 W/m2
03:09 6.6 °C 5.7 °C 993.5 hPa ESE 1.9 km/h 6.4 km/h 94% 0 mm 0 W/m2
03:14 6.4 °C 5.5 °C 993.5 hPa ESE 2.3 km/h 6.4 km/h 94% 0 mm 0 W/m2
03:19 6.4 °C 5.5 °C 993.5 hPa ESE 3.2 km/h 8 km/h 94% 0 mm 0 W/m2
03:24 6.4 °C 5.5 °C 993.5 hPa ESE 3.1 km/h 8 km/h 94% 0 mm 0 W/m2
03:29 6.3 °C 5.4 °C 993.5 hPa ESE 2.6 km/h 9.7 km/h 94% 0 mm 0 W/m2
03:34 6.3 °C 5.4 °C 993.5 hPa ESE 3.1 km/h 11.3 km/h 94% 0 mm 0 W/m2
03:39 6.4 °C 5.5 °C 993.5 hPa ESE 2.6 km/h 9.7 km/h 94% 0 mm 0 W/m2
03:44 6.4 °C 5.5 °C 993.5 hPa SE 2.7 km/h 9.7 km/h 94% 0 mm 0 W/m2
03:49 6.5 °C 5.6 °C 993.5 hPa ESE 4.5 km/h 9.7 km/h 94% 0 mm 0 W/m2
03:54 6.6 °C 5.7 °C 993.5 hPa ESE 3.7 km/h 8 km/h 94% 0 mm 0 W/m2
03:59 6.6 °C 5.7 °C 993.5 hPa ESE 3.1 km/h 12.9 km/h 94% 0 mm 0 W/m2
04:04 6.6 °C 5.7 °C 993.5 hPa ESE 3.7 km/h 12.9 km/h 94% 0 mm 0 W/m2
04:09 6.6 °C 5.7 °C 993.5 hPa ESE 0.6 km/h 8 km/h 94% 0 mm 0 W/m2
04:14 6.5 °C 5.6 °C 993.5 hPa ESE 1.3 km/h 8 km/h 94% 0 mm 0 W/m2
04:19 6.4 °C 5.6 °C 993.5 hPa ESE 2.6 km/h 11.3 km/h 94.2% 0 mm 0 W/m2
04:24 6.4 °C 5.6 °C 993.5 hPa ESE 2.1 km/h 11.3 km/h 94.2% 0 mm 0 W/m2
04:29 6.4 °C 5.6 °C 993.5 hPa ESE 3.9 km/h 8 km/h 94.3% 0 mm 0 W/m2
04:34 6.4 °C 5.7 °C 993.5 hPa ESE 3.7 km/h 9.7 km/h 94.5% 0 mm 0 W/m2
04:39 6.5 °C 5.8 °C 993.5 hPa ESE 0.3 km/h 4.8 km/h 95% 0 mm 0 W/m2
04:44 6.4 °C 5.7 °C 993.5 hPa ESE 1.3 km/h 8 km/h 95% 0 mm 0 W/m2
04:49 6.4 °C 5.7 °C 993.5 hPa ESE 2.9 km/h 9.7 km/h 94.8% 0 mm 0 W/m2
04:54 6.4 °C 5.7 °C 993.5 hPa ESE 4.8 km/h 9.7 km/h 95% 0 mm 0 W/m2
04:59 6.4 °C 5.7 °C 993.5 hPa ESE 5 km/h 9.7 km/h 95% 0 mm 0 W/m2
05:04 6.4 °C 5.8 °C 993.5 hPa SE 3.9 km/h 9.7 km/h 95% 0 mm 0 W/m2
05:09 6.5 °C 5.8 °C 993.5 hPa SE 2.7 km/h 8 km/h 95% 0 mm 0 W/m2
05:14 6.6 °C 5.8 °C 993.5 hPa SE 3.5 km/h 8 km/h 94.9% 0 mm 0 W/m2
05:19 6.6 °C 5.8 °C 993.1 hPa ESE 3.2 km/h 8 km/h 95% 0 mm 0 W/m2
05:24 6.5 °C 5.8 °C 993.1 hPa ESE 2.4 km/h 6.4 km/h 95% 0 mm 0 W/m2
05:29 6.4 °C 5.7 °C 993.1 hPa SE 3.5 km/h 8 km/h 95% 0 mm 0 W/m2
05:34 6.5 °C 5.8 °C 993.5 hPa SE 3.9 km/h 12.9 km/h 95% 0 mm 0 W/m2
05:39 6.6 °C 5.8 °C 993.5 hPa SE 4.5 km/h 12.9 km/h 94.5% 0 mm 0 W/m2
05:44 6.7 °C 5.8 °C 993.5 hPa SE 4.3 km/h 11.3 km/h 94.5% 0 mm 0 W/m2
05:49 6.7 °C 5.8 °C 993.5 hPa SE 5 km/h 16.1 km/h 94.2% 0 mm 0 W/m2
05:54 6.7 °C 5.8 °C 993.1 hPa SSE 4.8 km/h 12.9 km/h 94.2% 0.25 mm 0 W/m2
05:59 6.7 °C 5.8 °C 993.1 hPa SE 4.8 km/h 12.9 km/h 94.1% 0.25 mm 0 W/m2
06:04 6.7 °C 5.8 °C 993.1 hPa SE 5 km/h 16.1 km/h 94.2% 0.25 mm 0 W/m2
06:09 6.6 °C 5.7 °C 993.1 hPa SE 5.5 km/h 16.1 km/h 94% 0.25 mm 0 W/m2
06:14 6.6 °C 5.7 °C 993.1 hPa SE 4.8 km/h 11.3 km/h 94% 0.25 mm 0 W/m2
06:19 6.6 °C 5.7 °C 993.1 hPa ESE 6.3 km/h 11.3 km/h 94% 0.25 mm 0 W/m2
06:24 6.6 °C 5.7 °C 993.1 hPa SE 1.9 km/h 11.3 km/h 94.5% 0.25 mm 0 W/m2
06:29 6.4 °C 5.6 °C 993.1 hPa SE 4.5 km/h 9.7 km/h 94% 0.25 mm 0 W/m2
06:34 6.4 °C 5.5 °C 993.1 hPa ESE 5 km/h 11.3 km/h 94% 0.25 mm 0 W/m2
06:39 6.3 °C 5.4 °C 993.1 hPa SE 4.3 km/h 11.3 km/h 94% 0.25 mm 0 W/m2
06:44 6.3 °C 5.4 °C 993.1 hPa ESE 3.7 km/h 8 km/h 94% 0.25 mm 0 W/m2
06:49 6.3 °C 5.3 °C 993.1 hPa ESE 4.7 km/h 9.7 km/h 94% 0.25 mm 0 W/m2
06:54 6.2 °C 5.3 °C 993.1 hPa ESE 3.7 km/h 9.7 km/h 94% 0.25 mm 0 W/m2
06:59 6.2 °C 5.2 °C 993.1 hPa ESE 3.9 km/h 8 km/h 94% 0 mm 0 W/m2
07:04 6.1 °C 5.2 °C 993.1 hPa SE 3.4 km/h 8 km/h 94% 0 mm 0 W/m2
07:09 6.1 °C 5.2 °C 993.5 hPa SE 2.3 km/h 8 km/h 94% 0 mm 0 W/m2
07:14 6.2 °C 5.3 °C 993.5 hPa SE 3.2 km/h 8 km/h 94% 0 mm 0 W/m2
07:19 6.2 °C 5.3 °C 993.1 hPa ESE 4.7 km/h 11.3 km/h 94% 0 mm 0 W/m2
07:24 6.2 °C 5.3 °C 993.1 hPa ESE 5.5 km/h 11.3 km/h 94% 0 mm 0 W/m2
07:29 6.3 °C 5.4 °C 993.1 hPa ESE 5.1 km/h 16.1 km/h 94% 0 mm 0 W/m2
07:34 6.3 °C 5.4 °C 993.1 hPa ESE 5.5 km/h 9.7 km/h 94% 0 mm 0 W/m2
07:39 6.6 °C 5.7 °C 993.1 hPa SE 5.3 km/h 11.3 km/h 94% 0 mm 0 W/m2
07:44 6.6 °C 5.7 °C 993.1 hPa SE 5.8 km/h 12.9 km/h 94% 0 mm 5 W/m2
07:49 6.6 °C 5.7 °C 993.1 hPa SE 4.7 km/h 12.9 km/h 94% 0 mm 7 W/m2
07:54 6.7 °C 5.8 °C 993.1 hPa ESE 5.3 km/h 11.3 km/h 94% 0 mm 9 W/m2
07:59 6.7 °C 5.8 °C 993.1 hPa SE 4.3 km/h 11.3 km/h 94% 0 mm 14 W/m2
08:04 6.6 °C 5.7 °C 993.1 hPa ESE 5.8 km/h 12.9 km/h 94% 0 mm 19 W/m2
08:09 6.6 °C 5.7 °C 993.1 hPa SE 6.3 km/h 12.9 km/h 94% 0 mm 25 W/m2
08:14 6.6 °C 5.7 °C 993.1 hPa SE 5.6 km/h 12.9 km/h 94% 0 mm 26 W/m2
08:19 6.5 °C 5.6 °C 993.5 hPa SE 5.5 km/h 14.5 km/h 94% 0 mm 25 W/m2
08:24 6.4 °C 5.5 °C 993.5 hPa SE 7.1 km/h 17.7 km/h 94% 0 mm 26 W/m2
08:29 6.4 °C 5.5 °C 993.5 hPa SE 4.5 km/h 17.7 km/h 94% 0 mm 26 W/m2
08:34 6.3 °C 5.4 °C 993.5 hPa SE 6.3 km/h 14.5 km/h 94% 0 mm 23 W/m2
08:39 6.3 °C 5.4 °C 993.5 hPa SE 5.8 km/h 14.5 km/h 93.7% 0 mm 23 W/m2
08:44 6.3 °C 5.3 °C 993.5 hPa SSE 6.8 km/h 16.1 km/h 93% 0 mm 28 W/m2
08:49 6.3 °C 5.3 °C 993.5 hPa SE 5 km/h 14.5 km/h 93% 0 mm 33 W/m2
08:54 6.4 °C 5.4 °C 993.5 hPa SE 5.5 km/h 14.5 km/h 93% 0 mm 32 W/m2
08:59 6.4 °C 5.4 °C 993.5 hPa SE 7.4 km/h 16.1 km/h 93% 0 mm 30 W/m2
09:04 6.4 °C 5.4 °C 993.5 hPa SSE 5.6 km/h 16.1 km/h 93% 0 mm 28 W/m2
09:09 6.4 °C 5.4 °C 993.5 hPa SE 5.8 km/h 11.3 km/h 93% 0 mm 30 W/m2
09:14 6.4 °C 5.4 °C 993.5 hPa SE 8.2 km/h 14.5 km/h 93% 0 mm 30 W/m2
09:19 6.4 °C 5.4 °C 993.5 hPa SE 7.1 km/h 12.9 km/h 93% 0 mm 33 W/m2
09:24 6.5 °C 5.4 °C 993.5 hPa SE 5.6 km/h 11.3 km/h 93% 0 mm 44 W/m2
09:29 6.5 °C 5.4 °C 993.5 hPa SE 6 km/h 14.5 km/h 93% 0 mm 46 W/m2
09:34 6.6 °C 5.4 °C 993.5 hPa SE 6.6 km/h 20.9 km/h 93% 0 mm 44 W/m2
09:39 6.7 °C 5.5 °C 993.1 hPa SE 5.1 km/h 12.9 km/h 92.8% 0 mm 39 W/m2
09:44 6.7 °C 5.6 °C 993.5 hPa SSE 8.2 km/h 19.3 km/h 92.7% 0 mm 33 W/m2
09:49 6.8 °C 5.6 °C 993.5 hPa SE 6.6 km/h 16.1 km/h 92% 0 mm 28 W/m2
09:54 6.9 °C 5.7 °C 993.5 hPa SSE 8 km/h 16.1 km/h 92% 0 mm 25 W/m2
09:59 7.1 °C 5.8 °C 993.5 hPa SSE 9.3 km/h 16.1 km/h 91.5% 0 mm 19 W/m2
10:04 7.1 °C 5.7 °C 993.5 hPa SSE 14 km/h 25.7 km/h 91% 0 mm 12 W/m2
10:09 7.2 °C 5.7 °C 993.5 hPa SSE 14.6 km/h 25.7 km/h 90% 0.51 mm 11 W/m2
10:14 7.1 °C 5.6 °C 993.5 hPa SSE 8.9 km/h 24.1 km/h 90% 1.02 mm 5 W/m2
10:19 7.1 °C 5.6 °C 993.5 hPa South 11.9 km/h 24.1 km/h 90% 1.52 mm 0 W/m2
10:24 7.1 °C 5.6 °C 993.8 hPa SSE 11.3 km/h 20.9 km/h 90% 2.03 mm 5 W/m2
10:29 6.9 °C 5.4 °C 993.8 hPa South 12.2 km/h 20.9 km/h 90% 2.79 mm 7 W/m2
10:34 6.8 °C 5.3 °C 993.8 hPa SSE 8.2 km/h 17.7 km/h 90% 3.3 mm 7 W/m2
10:39 6.7 °C 5.3 °C 993.8 hPa SSE 8.4 km/h 16.1 km/h 90.9% 4.57 mm 7 W/m2
10:44 6.6 °C 5.2 °C 993.8 hPa SSE 5.3 km/h 11.3 km/h 91% 5.33 mm 9 W/m2
10:49 6.5 °C 5.1 °C 993.5 hPa SE 3.7 km/h 9.7 km/h 91% 6.1 mm 14 W/m2
10:54 6.5 °C 5.2 °C 993.5 hPa SE 4 km/h 8 km/h 91.5% 6.6 mm 16 W/m2
10:59 6.6 °C 5.4 °C 993.5 hPa ESE 1.8 km/h 8 km/h 92% 6.86 mm 16 W/m2
11:04 6.7 °C 5.4 °C 993.5 hPa ESE 1 km/h 3.2 km/h 92% 7.11 mm 16 W/m2
11:09 6.7 °C 5.5 °C 993.5 hPa ESE 1.3 km/h 4.8 km/h 92% 7.11 mm 19 W/m2
11:14 6.7 °C 5.5 °C 993.5 hPa ESE 0.5 km/h 4.8 km/h 92% 6.86 mm 19 W/m2
11:19 6.6 °C 5.4 °C 993.5 hPa Calm   1.6 km/h 92% 6.35 mm 14 W/m2
11:24 6.4 °C 5.2 °C 993.5 hPa ESE 0.5 km/h 4.8 km/h 92% 6.35 mm 18 W/m2
11:29 6.4 °C 5.2 °C 993.1 hPa Calm     92% 6.1 mm 25 W/m2
11:34 6.5 °C 5.3 °C 993.1 hPa Calm   1.6 km/h 92% 5.84 mm 23 W/m2
11:39 6.6 °C 5.3 °C 993.1 hPa Calm     92% 5.33 mm 21 W/m2
11:44 6.6 °C 5.5 °C 993.1 hPa ESE 0.3 km/h 3.2 km/h 92.9% 4.57 mm 21 W/m2
11:49 6.6 °C 5.5 °C 993.1 hPa Calm     92.8% 4.06 mm 19 W/m2
11:54 6.6 °C 5.4 °C 993.5 hPa Calm     93% 3.56 mm 16 W/m2
11:59 6.5 °C 5.4 °C 993.1 hPa ESE 0.3 km/h 3.2 km/h 93% 3.81 mm 23 W/m2
12:04 6.6 °C 5.5 °C 993.1 hPa ESE 0.2 km/h 3.2 km/h 93% 3.81 mm 23 W/m2
12:09 6.6 °C 5.5 °C 992.8 hPa ESE 0.6 km/h 3.2 km/h 93% 3.81 mm 33 W/m2
12:14 6.6 °C 5.5 °C 992.8 hPa ESE 0.3 km/h 3.2 km/h 93% 3.81 mm 42 W/m2
12:19 6.6 °C 5.5 °C 992.4 hPa ESE 0.3 km/h 3.2 km/h 93% 3.56 mm 54 W/m2
12:24 6.6 °C 5.5 °C 992.4 hPa ESE 0.2 km/h 3.2 km/h 93% 3.3 mm 84 W/m2
12:29 6.7 °C 5.6 °C 992.4 hPa East 1.6 km/h 8 km/h 93% 2.79 mm 118 W/m2
12:34 6.7 °C 5.6 °C 992.4 hPa East 3.4 km/h 8 km/h 93% 2.29 mm 121 W/m2
12:39 6.8 °C 5.7 °C 992.1 hPa ENE 2.9 km/h 9.7 km/h 93% 2.29 mm 97 W/m2
12:44 6.8 °C 5.7 °C 992.1 hPa East 3.1 km/h 9.7 km/h 93% 1.78 mm 74 W/m2
12:49 6.8 °C 5.7 °C 992.1 hPa East 3.2 km/h 9.7 km/h 93% 1.52 mm 62 W/m2
12:54 6.7 °C 5.6 °C 992.1 hPa East 2.1 km/h 9.7 km/h 93% 1.27 mm 40 W/m2
12:59 6.7 °C 5.7 °C 992.1 hPa East 1.4 km/h 6.4 km/h 93.9% 1.02 mm 30 W/m2
13:04 6.6 °C 5.7 °C 992.1 hPa East 2.6 km/h 8 km/h 94% 0.51 mm 53 W/m2
13:09 6.7 °C 5.8 °C 992.1 hPa East 0.8 km/h 6.4 km/h 94% 0.51 mm 53 W/m2
13:14 6.7 °C 5.8 °C 992.1 hPa East 1 km/h 8 km/h 94% 0.51 mm 49 W/m2
13:19 6.7 °C 5.8 °C 992.1 hPa East 0.3 km/h 6.4 km/h 94% 0.25 mm 54 W/m2
13:24 6.7 °C 5.8 °C 991.8 hPa East 1.9 km/h 8 km/h 94% 0.51 mm 54 W/m2
13:29 6.7 °C 5.8 °C 991.8 hPa East 0.6 km/h 3.2 km/h 94% 0.51 mm 35 W/m2
13:34 6.7 °C 5.7 °C 991.8 hPa East 0.6 km/h 3.2 km/h 94% 0.51 mm 40 W/m2
13:39 6.7 °C 5.8 °C 991.4 hPa East 0.2 km/h 1.6 km/h 94% 0.51 mm 21 W/m2
13:44 6.7 °C 5.8 °C 991.4 hPa East 1.3 km/h 8 km/h 94% 1.02 mm 21 W/m2
13:49 6.7 °C 5.8 °C 991.4 hPa East 0.8 km/h 6.4 km/h 94% 1.02 mm 25 W/m2
13:54 6.7 °C 5.8 °C 991.4 hPa East 1.4 km/h 6.4 km/h 94% 1.27 mm 35 W/m2
13:57 6.8 °C 5.9 °C 991.4 hPa East 3.7 km/h 6.4 km/h 94% 1.27 mm 47 W/m2
14:49 -17.8 °C -17.8 °C 0 hPa Calm     % 0 mm W/m2
14:51 -17.8 °C -17.8 °C 0 hPa Calm     % 0 mm W/m2
14:59 7.7 °C 6.8 °C 991.4 hPa East 6.1 km/h 17.7 km/h 94.2% 1.02 mm 18 W/m2
15:04 7.7 °C 6.8 °C 991.1 hPa ESE 10 km/h 19.3 km/h 94% 1.27 mm 16 W/m2
15:09 7.8 °C 6.9 °C 991.1 hPa ESE 7.4 km/h 19.3 km/h 94.4% 1.27 mm 14 W/m2
15:14 7.8 °C 7 °C 991.1 hPa East 5.3 km/h 14.5 km/h 94.8% 1.02 mm 5 W/m2
15:19 7.9 °C 7.1 °C 991.1 hPa ESE 5.1 km/h 14.5 km/h 95% 1.02 mm 11 W/m2
15:24 7.9 °C 7.1 °C 991.1 hPa ESE 8.7 km/h 16.1 km/h 95% 1.02 mm 14 W/m2
15:29 7.9 °C 7.1 °C 991.1 hPa ESE 8 km/h 17.7 km/h 95% 1.27 mm 18 W/m2
15:34 7.9 °C 7.2 °C 991.1 hPa SE 7.1 km/h 17.7 km/h 95% 1.02 mm 16 W/m2
15:39 8.2 °C 7.3 °C 991.1 hPa SE 10.8 km/h 22.5 km/h 95% 1.02 mm 16 W/m2
15:44 8.3 °C 7.5 °C 990.7 hPa SE 8.2 km/h 20.9 km/h 95% 1.02 mm 11 W/m2
15:49 8.4 °C 7.7 °C 990.7 hPa SE 10.5 km/h 20.9 km/h 95% 0.76 mm 12 W/m2
15:54 8.6 °C 7.8 °C 990.7 hPa SE 8.2 km/h 20.9 km/h 95% 0.76 mm 11 W/m2
15:59 8.6 °C 7.7 °C 990.7 hPa SE 9.3 km/h 25.7 km/h 94% 0.51 mm 7 W/m2
16:04 8.6 °C 7.8 °C 990.7 hPa SE 9.2 km/h 20.9 km/h 94.7% 0.51 mm 5 W/m2
16:09 8.7 °C 7.8 °C 990.7 hPa SE 6.6 km/h 20.9 km/h 94.8% 0.25 mm 0 W/m2
16:14 8.7 °C 7.8 °C 990.7 hPa SE 8 km/h 20.9 km/h 94% 0.25 mm 0 W/m2
16:19 8.7 °C 7.8 °C 990.7 hPa SE 10.6 km/h 20.9 km/h 94% 0.25 mm 0 W/m2
16:24 8.7 °C 7.8 °C 990.7 hPa SE 8.4 km/h 19.3 km/h 94% 0.25 mm 0 W/m2
16:29 8.8 °C 7.9 °C 990.7 hPa SE 8.2 km/h 19.3 km/h 94% 0 mm 0 W/m2
16:34 8.8 °C 7.9 °C 990.7 hPa SE 8 km/h 19.3 km/h 94% 0 mm 0 W/m2
16:39 8.8 °C 7.9 °C 990.7 hPa SE 5.5 km/h 11.3 km/h 94% 0 mm 0 W/m2
16:44 8.8 °C 7.9 °C 990.7 hPa SE 8.4 km/h 20.9 km/h 94% 0 mm 0 W/m2
16:49 8.8 °C 7.8 °C 990.7 hPa ESE 10.1 km/h 20.9 km/h 94% 0 mm 0 W/m2
16:54 8.8 °C 7.8 °C 990.7 hPa ESE 9.7 km/h 20.9 km/h 94% 0 mm 0 W/m2
16:59 8.7 °C 7.8 °C 990.7 hPa SE 6.8 km/h 16.1 km/h 94% 0 mm 0 W/m2
17:04 8.7 °C 7.6 °C 990.7 hPa ESE 8.2 km/h 20.9 km/h 93.1% 0 mm 0 W/m2
17:09 8.7 °C 7.6 °C 990.7 hPa ESE 8.7 km/h 17.7 km/h 93% 0 mm 0 W/m2
17:14 8.7 °C 7.6 °C 990.7 hPa ESE 10.1 km/h 17.7 km/h 93% 0 mm 0 W/m2
17:19 8.7 °C 7.6 °C 990.7 hPa ESE 8.5 km/h 17.7 km/h 93% 0 mm 0 W/m2
17:24 8.7 °C 7.6 °C 990.7 hPa ESE 11.1 km/h 19.3 km/h 93% 0 mm 0 W/m2
17:29 8.7 °C 7.6 °C 990.7 hPa ESE 14.3 km/h 29 km/h 93% 0 mm 0 W/m2
17:34 8.7 °C 7.6 °C 990.7 hPa ESE 9 km/h 29 km/h 93% 0 mm 0 W/m2
17:39 8.7 °C 7.6 °C 990.7 hPa ESE 10.3 km/h 25.7 km/h 93% 0 mm 0 W/m2
17:44 8.7 °C 7.6 °C 990.7 hPa ESE 14.2 km/h 29 km/h 93% 0 mm 0 W/m2
17:49 8.7 °C 7.6 °C 990.7 hPa ESE 9 km/h 30.6 km/h 93% 0 mm 0 W/m2
17:54 8.7 °C 7.6 °C 990.7 hPa ESE 11.6 km/h 24.1 km/h 93% 0 mm 0 W/m2
17:59 8.7 °C 7.6 °C 990.7 hPa ESE 12.6 km/h 27.4 km/h 93% 0 mm 0 W/m2
18:04 8.7 °C 7.6 °C 990.7 hPa ESE 10.6 km/h 27.4 km/h 92.3% 0 mm 0 W/m2
18:09 8.7 °C 7.5 °C 990.7 hPa SE 9 km/h 20.9 km/h 92% 0 mm 0 W/m2
18:14 8.7 °C 7.5 °C 990.7 hPa ESE 9.8 km/h 24.1 km/h 92% 0 mm 0 W/m2
18:19 8.7 °C 7.5 °C 990.7 hPa SE 10.5 km/h 22.5 km/h 92% 0 mm 0 W/m2
18:24 8.7 °C 7.6 °C 990.7 hPa ESE 9.7 km/h 17.7 km/h 92% 0 mm 0 W/m2
18:29 8.8 °C 7.6 °C 990.7 hPa ESE 10.6 km/h 32.2 km/h 92% 0 mm 0 W/m2
18:34 8.8 °C 7.6 °C 990.7 hPa ESE 9 km/h 17.7 km/h 91.9% 0 mm 0 W/m2
18:39 8.8 °C 7.4 °C 990.7 hPa ESE 9.8 km/h 20.9 km/h 91% 0 mm 0 W/m2
18:44 8.8 °C 7.4 °C 990.7 hPa ESE 10.5 km/h 22.5 km/h 91% 0 mm 0 W/m2
18:49 8.8 °C 7.4 °C 991.1 hPa SE 9.7 km/h 22.5 km/h 91% 0 mm 0 W/m2
18:54 8.8 °C 7.4 °C 991.1 hPa SE 8.9 km/h 20.9 km/h 91% 0 mm 0 W/m2
18:59 8.9 °C 7.5 °C 991.1 hPa SE 9 km/h 20.9 km/h 91% 0 mm 0 W/m2
19:04 8.9 °C 7.5 °C 991.1 hPa SE 8.5 km/h 24.1 km/h 90.9% 0 mm 0 W/m2
19:09 8.9 °C 7.3 °C 991.1 hPa SE 9.8 km/h 24.1 km/h 90% 0 mm 0 W/m2
19:14 8.9 °C 7.3 °C 991.1 hPa ESE 10.1 km/h 24.1 km/h 90% 0 mm 0 W/m2
19:19 8.9 °C 7.3 °C 991.1 hPa ESE 12.4 km/h 24.1 km/h 90% 0 mm 0 W/m2
19:24 8.9 °C 7.3 °C 991.1 hPa ESE 12.9 km/h 25.7 km/h 90% 0 mm 0 W/m2
19:29 8.9 °C 7.3 °C 991.1 hPa SE 10.5 km/h 22.5 km/h 90% 0 mm 0 W/m2
19:34 8.9 °C 7.3 °C 991.1 hPa ESE 8 km/h 24.1 km/h 90% 0 mm 0 W/m2
19:39 8.9 °C 7.3 °C 991.1 hPa ESE 11.1 km/h 22.5 km/h 90% 0 mm 0 W/m2
19:44 8.9 °C 7.3 °C 991.1 hPa ESE 9.8 km/h 27.4 km/h 90% 0 mm 0 W/m2
19:49 8.9 °C 7.3 °C 990.7 hPa SE 12.6 km/h 32.2 km/h 90% 0 mm 0 W/m2
19:54 8.9 °C 7.2 °C 991.1 hPa ESE 12.7 km/h 33.8 km/h 89.4% 0 mm 0 W/m2
19:59 8.9 °C 7.2 °C 991.1 hPa ESE 16.1 km/h 33.8 km/h 89% 0 mm 0 W/m2
20:04 8.9 °C 7.2 °C 991.1 hPa ESE 10.9 km/h 33.8 km/h 89% 0 mm 0 W/m2
20:09 8.9 °C 7.2 °C 991.1 hPa SE 10.1 km/h 33.8 km/h 89% 0 mm 0 W/m2
20:14 8.8 °C 7.2 °C 991.1 hPa ESE 7.6 km/h 22.5 km/h 89% 0 mm 0 W/m2
20:19 8.8 °C 7.1 °C 991.1 hPa ESE 11.9 km/h 24.1 km/h 89% 0 mm 0 W/m2
20:24 8.8 °C 7.2 °C 991.1 hPa SE 7.2 km/h 22.5 km/h 89% 0 mm 0 W/m2
20:29 8.8 °C 7.2 °C 990.7 hPa ESE 10 km/h 27.4 km/h 89% 0 mm 0 W/m2
20:34 8.8 °C 7.1 °C 990.7 hPa SE 6.9 km/h 17.7 km/h 89% 0 mm 0 W/m2
20:39 8.8 °C 7.1 °C 990.7 hPa ESE 9.7 km/h 25.7 km/h 89% 0 mm 0 W/m2
20:44 8.8 °C 7.1 °C 990.7 hPa ESE 11.1 km/h 22.5 km/h 89% 0 mm 0 W/m2
20:49 8.8 °C 7.2 °C 990.7 hPa ESE 13.7 km/h 25.7 km/h 89% 0 mm 0 W/m2
20:54 8.9 °C 7.2 °C 990.7 hPa ESE 8.4 km/h 25.7 km/h 89% 0 mm 0 W/m2
20:59 8.9 °C 7.2 °C 990.7 hPa SE 11.9 km/h 25.7 km/h 89% 0 mm 0 W/m2
21:04 8.9 °C 7.2 °C 990.7 hPa ESE 9 km/h 25.7 km/h 89% 0 mm 0 W/m2
21:09 8.8 °C 7.2 °C 990.7 hPa SE 8.5 km/h 25.7 km/h 89% 0 mm 0 W/m2
21:14 8.8 °C 7.2 °C 990.7 hPa ESE 10.3 km/h 25.7 km/h 89% 0 mm 0 W/m2
21:19 8.8 °C 7.1 °C 990.7 hPa ESE 10 km/h 25.7 km/h 88.8% 0 mm 0 W/m2
21:24 8.8 °C 6.9 °C 990.7 hPa ESE 11.1 km/h 25.7 km/h 88% 0 mm 0 W/m2
21:29 8.8 °C 6.9 °C 990.7 hPa ESE 9.8 km/h 24.1 km/h 88% 0 mm 0 W/m2
21:34 8.8 °C 6.9 °C 990.7 hPa ESE 11.9 km/h 22.5 km/h 88% 0 mm 0 W/m2
21:39 8.8 °C 6.9 °C 990.7 hPa ESE 12.6 km/h 25.7 km/h 88% 0 mm 0 W/m2
21:44 8.8 °C 6.9 °C 990.7 hPa ESE 8.9 km/h 22.5 km/h 88% 0 mm 0 W/m2
21:49 8.8 °C 6.9 °C 990.4 hPa ESE 14.5 km/h 33.8 km/h 88% 0 mm 0 W/m2
21:54 8.8 °C 6.9 °C 990.4 hPa ESE 12.2 km/h 33.8 km/h 88% 0 mm 0 W/m2
21:59 8.8 °C 6.9 °C 990.4 hPa ESE 11.3 km/h 27.4 km/h 88% 0 mm 0 W/m2
22:04 8.8 °C 6.9 °C 990.4 hPa ESE 8.4 km/h 19.3 km/h 88% 0 mm 0 W/m2
22:09 8.8 °C 6.9 °C 990.1 hPa ESE 9.2 km/h 25.7 km/h 88% 0 mm 0 W/m2
22:14 8.8 °C 6.9 °C 990.1 hPa East 11.4 km/h 27.4 km/h 88% 0 mm 0 W/m2
22:19 8.8 °C 6.9 °C 989.7 hPa ESE 11.1 km/h 24.1 km/h 88% 0 mm 0 W/m2
22:24 8.8 °C 6.9 °C 989.7 hPa East 11.7 km/h 24.1 km/h 88% 0 mm 0 W/m2
22:29 8.9 °C 7 °C 989.7 hPa East 9.5 km/h 24.1 km/h 88% 0 mm 0 W/m2
22:34 8.9 °C 7 °C 989.7 hPa ESE 10.5 km/h 22.5 km/h 88% 0 mm 0 W/m2
22:39 8.8 °C 6.9 °C 989.7 hPa ESE 9.7 km/h 22.5 km/h 88% 0 mm 0 W/m2
22:44 8.8 °C 6.9 °C 989.7 hPa ESE 9.3 km/h 16.1 km/h 88% 0 mm 0 W/m2
22:49 8.8 °C 6.9 °C 989.7 hPa ESE 4.3 km/h 17.7 km/h 88% 0 mm 0 W/m2
22:54 8.8 °C 6.9 °C 989.7 hPa ESE 5.3 km/h 16.1 km/h 88% 0 mm 0 W/m2
22:59 8.7 °C 6.8 °C 989.7 hPa East 7.9 km/h 17.7 km/h 88% 0 mm 0 W/m2
23:04 8.7 °C 6.8 °C 989.7 hPa East 5.6 km/h 19.3 km/h 88% 0 mm 0 W/m2
23:09 8.6 °C 6.8 °C 989.7 hPa ESE 8.4 km/h 24.1 km/h 88.6% 0 mm 0 W/m2
23:14 8.5 °C 6.8 °C 989.7 hPa East 7.1 km/h 24.1 km/h 89% 0 mm 0 W/m2
23:19 8.5 °C 6.8 °C 989.7 hPa ESE 5 km/h 17.7 km/h 89% 0 mm 0 W/m2
23:24 8.4 °C 6.7 °C 989.7 hPa Calm     89% 0 mm 0 W/m2
23:59 8.4 °C 6.9 °C 989.4 hPa East 3.7 km/h 19.3 km/h 90% 0 mm 0 W/m2
Bath Spa Weather
Compliments of Weather Underground - 2 mb